createdAt,value
2022-09-15T09:08:05.470Z,7.63
2022-09-15T09:10:43.348Z,14.97
2022-09-15T09:13:23.708Z,9.67
2022-09-15T09:16:14.155Z,13.43
2022-09-15T09:19:15.704Z,10.40
2022-09-15T09:21:48.922Z,11.77
2022-09-15T09:24:20.582Z,10.37
2022-09-15T09:26:54.530Z,13.67
2022-09-15T09:29:31.759Z,8.43
2022-09-15T09:32:02.711Z,10.13
2022-09-15T09:34:39.801Z,11.70
2022-09-15T09:37:12.782Z,8.03
2022-09-15T09:39:41.677Z,8.67
2022-09-15T09:42:17.219Z,8.80
2022-09-15T09:44:48.818Z,12.90
2022-09-15T09:47:37.934Z,11.73
2022-09-15T09:50:35.006Z,12.23
2022-09-15T09:53:27.176Z,12.20
2022-09-15T09:56:01.588Z,14.37
2022-09-15T09:58:30.528Z,8.63
2022-09-15T10:01:12.199Z,11.20
2022-09-15T10:03:42.097Z,12.33
2022-09-15T10:06:15.141Z,13.07
2022-09-15T10:08:57.856Z,9.27
2022-09-15T10:11:43.140Z,11.40
2022-09-15T10:14:23.451Z,14.90
2022-09-15T10:17:01.712Z,8.00
2022-09-15T10:19:32.591Z,13.57
2022-09-15T10:22:26.449Z,11.00
2022-09-15T10:24:55.623Z,13.70
2022-09-15T10:27:32.780Z,7.93
2022-09-15T10:30:17.658Z,11.47
2022-09-15T10:32:48.930Z,11.67
2022-09-15T10:35:19.686Z,9.23
2022-09-15T10:38:05.276Z,9.80
2022-09-15T10:40:40.624Z,13.50
2022-09-15T10:43:43.087Z,9.03
2022-09-15T10:46:15.064Z,11.30
2022-09-15T10:48:58.192Z,12.60
2022-09-15T10:51:43.574Z,9.80
2022-09-15T10:54:44.378Z,8.27
2022-09-15T10:57:28.613Z,9.33
2022-09-15T11:00:05.576Z,20.20
2022-09-15T11:03:22.839Z,17.23
2022-09-15T11:06:07.090Z,17.63
2022-09-15T11:09:07.974Z,12.40
2022-09-15T11:11:47.379Z,11.82
2022-09-15T11:14:33.456Z,12.18
2022-09-15T11:17:15.277Z,15.63
2022-09-15T11:20:00.105Z,13.93
2022-09-15T11:22:34.934Z,19.55
2022-09-15T11:25:06.816Z,12.90
2022-09-15T11:27:38.810Z,22.65
2022-09-15T11:30:15.818Z,15.27
2022-09-15T11:32:52.871Z,13.43
2022-09-15T11:35:34.773Z,13.80
2022-09-15T11:38:21.385Z,13.90
2022-09-15T11:40:56.800Z,16.57
2022-09-15T11:43:35.178Z,28.13
2022-09-15T11:46:09.367Z,26.13
2022-09-15T11:48:44.102Z,14.93
2022-09-15T11:51:16.270Z,19.13
2022-09-15T11:53:54.709Z,16.00
2022-09-15T11:56:29.185Z,25.07
2022-09-15T11:59:14.344Z,21.70
2022-09-15T12:01:50.370Z,17.60
2022-09-15T12:04:26.136Z,22.60
2022-09-15T12:07:18.989Z,21.87
2022-09-15T12:09:50.245Z,17.93
2022-09-15T12:12:22.128Z,20.57
2022-09-15T12:14:53.620Z,21.10
2022-09-15T12:17:32.922Z,23.73
2022-09-15T12:20:07.498Z,14.70
2022-09-15T12:23:03.087Z,16.17
2022-09-15T12:25:42.240Z,43.67
2022-09-15T12:28:41.386Z,14.87
2022-09-15T12:31:37.082Z,18.43
2022-09-15T12:34:28.153Z,14.03
2022-09-15T12:37:08.155Z,14.70
2022-09-15T12:39:42.508Z,16.00
2022-09-15T12:42:22.096Z,19.50
2022-09-15T12:44:57.482Z,13.00
2022-09-15T12:47:33.402Z,12.73
2022-09-15T12:50:08.870Z,16.77
2022-09-15T12:52:47.030Z,12.83
2022-09-15T12:55:21.371Z,12.00
2022-09-15T12:58:00.428Z,14.30
2022-09-15T13:00:37.994Z,21.40
2022-09-15T13:03:29.012Z,12.83
2022-09-15T13:06:21.095Z,14.40
2022-09-15T13:09:17.482Z,11.93
2022-09-15T13:11:51.331Z,13.47
2022-09-15T13:14:29.373Z,18.13
2022-09-15T13:17:05.566Z,15.17
2022-09-15T13:19:43.865Z,12.27
2022-09-15T13:22:23.808Z,16.07
2022-09-15T13:24:59.272Z,16.57
2022-09-15T13:27:37.201Z,10.60
2022-09-15T13:30:28.644Z,14.43
2022-09-15T13:33:07.200Z,8.63
2022-09-15T13:35:57.916Z,11.87
2022-09-15T13:38:44.193Z,9.10
2022-09-15T13:41:34.359Z,9.97
2022-09-15T13:44:33.666Z,19.73
2022-09-15T13:47:16.333Z,15.27
2022-09-15T13:49:52.970Z,7.10
2022-09-15T13:53:01.042Z,8.57
2022-09-15T13:55:34.317Z,13.10
2022-09-15T14:01:00.310Z,9.13
2022-09-15T14:03:38.311Z,9.70
2022-09-15T14:06:14.987Z,21.30
2022-09-15T14:09:07.775Z,8.63
2022-09-15T14:11:38.951Z,9.23
2022-09-15T14:14:12.977Z,18.20
2022-09-15T14:17:00.401Z,6.73
2022-09-15T14:19:34.978Z,11.40
2022-09-15T14:22:19.886Z,8.83
2022-09-15T14:24:49.108Z,14.30
2022-09-15T14:27:22.712Z,10.17
2022-09-15T14:29:55.415Z,9.53
2022-09-15T14:32:24.353Z,13.83
2022-09-15T14:34:56.662Z,12.43
2022-09-15T14:37:34.927Z,7.93
2022-09-15T14:40:20.789Z,9.77
2022-09-15T14:42:50.238Z,17.33
2022-09-15T14:48:33.924Z,13.93
2022-09-15T14:51:10.269Z,7.20
2022-09-15T14:53:42.017Z,15.73
2022-09-15T14:56:17.005Z,15.33
2022-09-15T14:58:49.839Z,14.87
2022-09-15T15:01:40.209Z,22.50
2022-09-15T15:04:23.121Z,20.67
2022-09-15T15:06:58.726Z,28.43
2022-09-15T15:09:34.975Z,32.00
2022-09-15T15:12:14.927Z,25.80
2022-09-15T15:14:44.787Z,24.90
2022-09-15T15:17:28.770Z,25.70
2022-09-15T15:20:03.201Z,27.50
2022-09-15T15:22:34.116Z,17.17
2022-09-15T15:25:24.644Z,26.70
2022-09-15T15:27:54.667Z,18.53
2022-09-15T15:30:44.511Z,21.07
2022-09-15T15:33:25.372Z,20.47
2022-09-15T15:36:07.804Z,21.20
2022-09-15T15:38:47.111Z,20.10
2022-09-15T15:41:23.111Z,26.90
2022-09-15T15:44:03.394Z,32.37
2022-09-15T15:46:50.577Z,40.37
2022-09-15T15:49:21.150Z,43.23
2022-09-15T15:51:50.341Z,40.77
2022-09-15T15:54:20.620Z,48.50
2022-09-15T15:56:49.487Z,49.07
2022-09-15T15:59:36.865Z,52.63
2022-09-15T16:02:14.491Z,45.90
2022-09-15T16:04:43.547Z,47.37
2022-09-15T16:07:18.497Z,103.40
2022-09-15T16:09:50.131Z,173.70
2022-09-15T16:12:19.432Z,96.20
2022-09-15T16:14:48.472Z,76.77
2022-09-15T16:17:17.261Z,110.50
2022-09-15T16:19:46.140Z,113.73
2022-09-15T16:22:19.558Z,107.63
2022-09-15T16:24:50.236Z,112.73
2022-09-15T16:27:19.966Z,95.37
2022-09-15T16:29:48.826Z,85.77
2022-09-15T16:32:20.787Z,95.33
2022-09-15T16:34:51.533Z,76.50
2022-09-15T16:37:20.460Z,62.70
2022-09-15T16:39:52.297Z,64.23
2022-09-15T16:42:21.358Z,73.63
2022-09-15T16:44:50.154Z,81.00
2022-09-15T16:47:19.077Z,149.03
2022-09-15T16:49:48.182Z,166.37
2022-09-15T16:52:17.869Z,157.90
2022-09-15T16:54:46.724Z,114.87
2022-09-15T16:57:19.538Z,139.03
2022-09-15T16:59:48.481Z,113.03
2022-09-15T17:02:17.430Z,112.10
2022-09-15T17:04:46.339Z,72.03
2022-09-15T17:07:15.959Z,110.47
2022-09-15T17:09:45.409Z,121.87
2022-09-15T17:14:50.262Z,92.83
2022-09-15T17:17:25.656Z,66.20
2022-09-15T17:19:54.761Z,60.13
2022-09-15T17:22:23.500Z,46.53
2022-09-15T17:24:52.344Z,34.17
2022-09-15T17:27:21.661Z,43.07
2022-09-15T17:29:51.891Z,43.17
2022-09-15T17:32:20.910Z,37.10
2022-09-15T17:34:49.836Z,52.90
2022-09-15T17:37:19.157Z,38.10
2022-09-15T17:39:51.536Z,41.57
2022-09-15T17:42:23.088Z,33.70
2022-09-15T17:44:53.250Z,39.93
2022-09-15T17:47:24.982Z,41.07
2022-09-15T17:49:54.387Z,43.80
2022-09-15T17:52:26.853Z,43.23
2022-09-15T17:54:56.075Z,32.83
2022-09-15T17:57:26.335Z,46.10
2022-09-15T17:59:56.801Z,45.87
2022-09-15T18:02:25.665Z,38.37
2022-09-15T18:04:54.611Z,31.50
2022-09-15T18:07:24.304Z,34.80
2022-09-15T18:09:53.306Z,21.13
2022-09-15T18:12:25.137Z,33.43
2022-09-15T18:14:55.450Z,36.30
2022-09-15T18:17:24.294Z,32.97
2022-09-15T18:19:53.446Z,28.83
2022-09-15T18:22:24.507Z,43.90
2022-09-15T18:24:53.392Z,38.83
2022-09-15T18:27:22.386Z,30.67
2022-09-15T18:29:51.804Z,39.03
2022-09-15T18:32:22.315Z,31.03
2022-09-15T18:34:51.373Z,42.60
2022-09-15T18:37:20.720Z,39.57
2022-09-15T18:39:51.328Z,37.60
2022-09-15T18:42:20.874Z,45.00
2022-09-15T18:44:52.373Z,49.10
2022-09-15T18:47:23.289Z,54.03
2022-09-15T18:49:52.469Z,58.77
2022-09-15T18:52:21.537Z,54.83
2022-09-15T18:54:50.511Z,52.27
2022-09-15T18:57:19.552Z,44.17
2022-09-15T18:59:49.239Z,46.73
2022-09-15T19:02:21.720Z,45.53
2022-09-15T19:04:59.638Z,35.47
2022-09-15T19:07:31.911Z,42.40
2022-09-15T19:10:09.102Z,32.23
2022-09-15T19:12:45.198Z,45.50
2022-09-15T19:15:15.639Z,34.77
2022-09-15T19:17:45.176Z,34.43
2022-09-15T19:20:16.577Z,26.40
2022-09-15T19:22:46.415Z,31.43
2022-09-15T19:25:15.432Z,30.00
2022-09-15T19:27:44.465Z,27.33
2022-09-15T19:30:14.725Z,30.67
2022-09-15T19:32:44.368Z,54.80
2022-09-15T19:35:15.087Z,51.03
2022-09-15T19:37:44.575Z,42.63
2022-09-15T19:40:15.387Z,51.83
2022-09-15T19:42:45.574Z,63.67
2022-09-15T19:45:15.297Z,56.73
2022-09-15T19:47:44.188Z,51.13
2022-09-15T19:50:15.309Z,66.47
2022-09-15T19:52:44.236Z,64.67
2022-09-15T19:55:13.593Z,55.23
2022-09-15T19:57:44.037Z,59.40
2022-09-15T20:00:15.045Z,51.50
2022-09-15T20:02:49.025Z,36.60
2022-09-15T20:05:34.342Z,30.47
2022-09-15T20:08:04.051Z,33.67
2022-09-15T20:10:32.968Z,27.20
2022-09-15T20:13:02.688Z,27.30
2022-09-15T20:15:31.721Z,42.27
2022-09-15T20:18:00.726Z,59.57
2022-09-15T20:20:31.523Z,52.63
2022-09-15T20:23:02.712Z,50.60
2022-09-15T20:26:00.355Z,53.30
2022-09-15T20:28:30.897Z,53.03
2022-09-15T20:31:20.777Z,70.53
2022-09-15T20:33:51.049Z,60.07
2022-09-15T20:36:24.350Z,55.90
2022-09-15T20:38:55.328Z,59.20
2022-09-15T20:41:26.858Z,72.50
2022-09-15T20:43:56.107Z,78.47
2022-09-15T20:46:25.731Z,79.07
2022-09-15T20:48:54.806Z,91.10
2022-09-15T20:51:27.000Z,97.13
2022-09-15T20:53:58.465Z,84.60
2022-09-15T20:56:31.220Z,97.37
2022-09-15T20:59:01.529Z,99.13
2022-09-15T21:01:33.689Z,115.87
2022-09-15T21:04:03.294Z,122.67
2022-09-15T21:06:34.169Z,118.20
2022-09-15T21:09:03.078Z,120.50
2022-09-15T21:11:32.571Z,105.33
2022-09-15T21:14:02.382Z,112.47
2022-09-15T21:16:33.903Z,98.97
2022-09-15T21:19:02.925Z,91.60
2022-09-15T21:21:34.241Z,68.80
2022-09-15T21:24:05.127Z,83.60
2022-09-15T21:26:35.932Z,63.07
2022-09-15T21:29:23.539Z,93.53
2022-09-15T21:31:52.658Z,76.60
2022-09-15T21:34:21.881Z,111.63
2022-09-15T21:36:53.758Z,85.07
2022-09-15T21:39:22.723Z,81.77
2022-09-15T21:41:51.870Z,85.40
2022-09-15T21:44:20.643Z,71.27
2022-09-15T21:46:49.561Z,54.23
2022-09-15T21:49:18.407Z,49.57
2022-09-15T21:51:47.662Z,51.73
2022-09-15T21:54:18.093Z,45.10
2022-09-15T21:56:47.031Z,39.00
2022-09-15T21:59:16.889Z,44.27
2022-09-15T22:01:45.849Z,46.23
2022-09-15T22:04:14.847Z,45.50
2022-09-15T22:06:43.784Z,45.20
2022-09-15T22:09:16.157Z,45.77
2022-09-15T22:12:04.948Z,57.60
2022-09-15T22:14:33.930Z,54.33
2022-09-15T22:17:21.238Z,59.90
2022-09-15T22:19:50.195Z,46.30
2022-09-15T22:22:19.352Z,44.97
2022-09-15T22:24:50.031Z,47.67
2022-09-15T22:27:20.382Z,51.93
2022-09-15T22:29:49.338Z,71.97
2022-09-15T22:32:18.258Z,56.67
2022-09-15T22:34:47.137Z,47.50
2022-09-15T22:37:16.268Z,39.27
2022-09-15T22:39:58.439Z,39.93
2022-09-15T22:42:29.510Z,30.33
2022-09-15T22:44:58.457Z,36.20
2022-09-15T22:47:27.365Z,30.20
2022-09-15T22:49:56.438Z,29.50
2022-09-15T22:52:25.352Z,33.20
2022-09-15T22:54:54.170Z,23.40
2022-09-15T22:57:22.975Z,25.27
2022-09-15T22:59:53.321Z,25.33
2022-09-15T23:02:22.268Z,21.57
2022-09-15T23:04:51.178Z,18.23
2022-09-15T23:07:20.066Z,19.83
2022-09-15T23:09:49.191Z,21.60
2022-09-15T23:12:18.007Z,16.03
2022-09-15T23:14:46.897Z,21.10
2022-09-15T23:17:17.311Z,16.07
2022-09-15T23:19:46.239Z,20.07
2022-09-15T23:22:15.148Z,18.53
2022-09-15T23:24:44.071Z,20.93
2022-09-15T23:27:12.905Z,29.80
2022-09-15T23:29:41.750Z,26.27
2022-09-15T23:32:10.595Z,29.40
2022-09-15T23:34:40.842Z,27.57
2022-09-15T23:37:09.733Z,28.50
2022-09-15T23:39:38.769Z,32.63
2022-09-15T23:42:07.854Z,25.63
2022-09-15T23:44:36.871Z,27.27
2022-09-15T23:47:05.809Z,26.70
2022-09-15T23:49:34.746Z,25.77
2022-09-15T23:52:05.336Z,28.30
2022-09-15T23:54:34.340Z,31.17
2022-09-15T23:57:03.203Z,24.60
2022-09-15T23:59:32.074Z,24.20
